createdAt,value
2018-12-23T00:01:54.399Z,12.43
2018-12-23T00:04:23.373Z,12.13
2018-12-23T00:06:52.340Z,10.60
2018-12-23T00:09:21.357Z,11.23
2018-12-23T00:11:50.418Z,14.10
2018-12-23T00:14:19.424Z,16.53
2018-12-23T00:16:48.404Z,21.80
2018-12-23T00:19:17.421Z,19.57
2018-12-23T00:21:46.348Z,12.50
2018-12-23T00:24:15.354Z,13.20
2018-12-23T00:26:44.325Z,18.37
2018-12-23T00:29:13.310Z,19.03
2018-12-23T00:31:42.341Z,24.23
2018-12-23T00:34:11.322Z,30.50
2018-12-23T00:36:40.260Z,27.10
2018-12-23T00:39:09.301Z,36.70
2018-12-23T00:41:52.532Z,38.17
2018-12-23T00:44:21.562Z,33.90
2018-12-23T00:46:50.561Z,26.70
2018-12-23T00:49:19.536Z,31.10
2018-12-23T00:51:48.479Z,26.43
2018-12-23T00:54:17.774Z,14.47
2018-12-23T00:56:46.692Z,13.67
2018-12-23T00:59:15.711Z,15.50
2018-12-23T01:01:44.845Z,17.20
2018-12-23T01:04:13.810Z,13.07
2018-12-23T01:06:42.756Z,10.70
2018-12-23T01:09:11.814Z,10.53
2018-12-23T01:11:40.725Z,7.63
2018-12-23T01:14:09.626Z,7.83
2018-12-23T01:16:38.501Z,6.57
2018-12-23T01:19:07.429Z,5.20
2018-12-23T01:21:36.346Z,3.77
2018-12-23T01:24:05.325Z,7.07
2018-12-23T01:26:34.459Z,4.50
2018-12-23T01:29:03.385Z,5.13
2018-12-23T01:31:32.357Z,6.13
2018-12-23T01:34:01.305Z,6.60
2018-12-23T01:36:30.273Z,3.40
2018-12-23T01:38:59.297Z,6.00
2018-12-23T01:41:28.320Z,6.50
2018-12-23T01:43:57.398Z,4.70
2018-12-23T01:46:26.457Z,7.87
2018-12-23T01:48:55.481Z,4.80
2018-12-23T01:51:24.453Z,4.60
2018-12-23T01:53:53.468Z,7.97
2018-12-23T01:56:22.333Z,8.03
2018-12-23T01:58:51.361Z,8.07
2018-12-23T02:01:20.317Z,8.50
2018-12-23T02:03:49.338Z,5.33
2018-12-23T02:06:18.314Z,6.40
2018-12-23T02:08:47.286Z,4.67
2018-12-23T02:11:16.297Z,4.60
2018-12-23T02:13:45.255Z,6.00
2018-12-23T02:16:14.264Z,5.00
2018-12-23T02:18:43.246Z,4.27
2018-12-23T02:21:12.213Z,5.83
2018-12-23T02:23:41.241Z,7.83
2018-12-23T02:26:10.113Z,7.10
2018-12-23T02:28:39.090Z,4.20
2018-12-23T02:31:08.014Z,3.17
2018-12-23T02:33:37.080Z,4.50
2018-12-23T02:36:06.049Z,3.50
2018-12-23T02:38:34.986Z,5.40
2018-12-23T02:41:03.949Z,2.73
2018-12-23T02:43:32.801Z,4.70
2018-12-23T02:46:01.719Z,3.00
2018-12-23T02:48:30.627Z,4.20
2018-12-23T02:50:59.621Z,2.30
2018-12-23T02:53:28.512Z,6.10
2018-12-23T02:55:57.586Z,2.40
2018-12-23T02:58:26.532Z,4.60
2018-12-23T03:00:55.462Z,2.87
2018-12-23T03:03:24.489Z,3.50
2018-12-23T03:05:53.510Z,4.10
2018-12-23T03:08:22.543Z,3.93
2018-12-23T03:10:51.577Z,9.53
2018-12-23T03:13:20.626Z,4.20
2018-12-23T03:15:49.554Z,2.77
2018-12-23T03:18:18.439Z,2.93
2018-12-23T03:20:47.336Z,3.50
2018-12-23T03:23:16.444Z,6.80
2018-12-23T03:25:45.473Z,5.63
2018-12-23T03:28:14.416Z,7.13
2018-12-23T03:30:43.335Z,3.37
2018-12-23T03:33:12.319Z,6.20
2018-12-23T03:35:41.293Z,5.30
2018-12-23T03:38:10.241Z,6.23
2018-12-23T03:40:39.212Z,6.23
2018-12-23T03:43:08.278Z,8.27
2018-12-23T03:45:37.314Z,5.20
2018-12-23T03:48:06.261Z,6.63
2018-12-23T03:50:35.186Z,5.53
2018-12-23T03:53:04.261Z,9.87
2018-12-23T03:55:33.264Z,7.13
2018-12-23T03:58:02.518Z,9.13
2018-12-23T04:00:31.349Z,3.53
2018-12-23T04:03:00.338Z,3.60
2018-12-23T04:05:29.272Z,4.40
2018-12-23T04:07:58.297Z,4.03
2018-12-23T04:10:27.264Z,2.90
2018-12-23T04:12:56.380Z,3.40
2018-12-23T04:15:25.511Z,5.63
2018-12-23T04:17:54.554Z,5.60
2018-12-23T04:20:23.474Z,5.97
2018-12-23T04:22:52.496Z,4.73
2018-12-23T04:25:21.387Z,9.27
2018-12-23T04:27:50.321Z,7.57
2018-12-23T04:30:19.400Z,5.23
2018-12-23T04:32:48.389Z,3.47
2018-12-23T04:35:17.432Z,6.20
2018-12-23T04:37:46.307Z,5.30
2018-12-23T04:40:15.293Z,3.90
2018-12-23T04:42:44.313Z,3.90
2018-12-23T04:45:13.313Z,4.30
2018-12-23T04:47:42.295Z,3.83
2018-12-23T04:50:11.365Z,5.33
2018-12-23T04:52:40.390Z,3.90
2018-12-23T04:55:09.402Z,4.57
2018-12-23T04:57:38.472Z,5.63
2018-12-23T05:00:07.364Z,5.40
2018-12-23T05:02:36.382Z,2.23
2018-12-23T05:05:05.410Z,2.67
2018-12-23T05:07:34.411Z,6.57
2018-12-23T05:10:03.289Z,2.30
2018-12-23T05:12:32.252Z,2.20
2018-12-23T05:15:01.281Z,2.60
2018-12-23T05:17:30.214Z,2.40
2018-12-23T05:19:59.178Z,1.70
2018-12-23T05:22:28.146Z,3.27
2018-12-23T05:24:57.121Z,4.07
2018-12-23T05:27:26.114Z,5.63
2018-12-23T05:29:55.149Z,2.70
2018-12-23T05:32:24.126Z,5.70
2018-12-23T05:34:53.105Z,5.77
2018-12-23T05:37:22.022Z,6.47
2018-12-23T05:39:51.117Z,6.13
2018-12-23T05:42:20.141Z,1.80
2018-12-23T05:44:49.205Z,3.53
2018-12-23T05:47:18.358Z,1.97
2018-12-23T05:49:47.488Z,3.33
2018-12-23T05:52:16.553Z,2.70
2018-12-23T05:54:45.525Z,2.70
2018-12-23T05:57:14.546Z,4.50
2018-12-23T05:59:43.465Z,2.93
2018-12-23T06:02:12.406Z,3.97
2018-12-23T06:04:41.344Z,4.80
2018-12-23T06:07:10.270Z,6.80
2018-12-23T06:09:39.246Z,8.63
2018-12-23T06:12:08.162Z,5.10
2018-12-23T06:14:37.257Z,6.97
2018-12-23T06:17:06.285Z,9.90
2018-12-23T06:19:35.269Z,5.17
2018-12-23T06:22:04.238Z,6.50
2018-12-23T06:24:33.385Z,3.73
2018-12-23T06:27:02.316Z,7.10
2018-12-23T06:29:31.276Z,4.20
2018-12-23T06:32:00.308Z,4.70
2018-12-23T06:34:29.196Z,3.93
2018-12-23T06:36:58.177Z,5.27
2018-12-23T06:39:27.116Z,4.47
2018-12-23T06:41:56.054Z,4.50
2018-12-23T06:44:25.032Z,8.13
2018-12-23T06:46:53.949Z,2.77
2018-12-23T06:49:22.978Z,2.53
2018-12-23T06:51:52.008Z,4.37
2018-12-23T06:54:20.995Z,4.90
2018-12-23T06:56:50.006Z,5.60
2018-12-23T06:59:19.070Z,5.93
2018-12-23T07:01:47.906Z,2.40
2018-12-23T07:04:16.797Z,4.90
2018-12-23T07:06:45.822Z,3.83
2018-12-23T07:09:14.668Z,6.20
2018-12-23T07:11:43.568Z,11.23
2018-12-23T07:14:12.558Z,5.50
2018-12-23T07:16:41.677Z,6.70
2018-12-23T07:19:10.677Z,9.40
2018-12-23T07:21:39.629Z,6.87
2018-12-23T07:24:08.612Z,8.20
2018-12-23T07:26:37.586Z,7.40
2018-12-23T07:29:06.689Z,14.70
2018-12-23T07:31:35.757Z,13.23
2018-12-23T07:34:04.753Z,6.47
2018-12-23T07:36:33.736Z,5.50
2018-12-23T07:39:02.927Z,10.67
2018-12-23T07:41:32.072Z,10.37
2018-12-23T07:44:00.956Z,10.97
2018-12-23T07:46:29.998Z,11.10
2018-12-23T07:49:36.498Z,10.30
2018-12-23T07:52:06.390Z,11.60
2018-12-23T07:54:36.392Z,9.87
2018-12-23T07:57:06.264Z,10.23
2018-12-23T07:59:36.189Z,11.33
2018-12-23T08:02:06.270Z,11.27
2018-12-23T08:04:36.387Z,9.03
2018-12-23T08:07:06.358Z,20.57
2018-12-23T08:09:36.328Z,15.80
2018-12-23T08:12:06.460Z,14.20
2018-12-23T08:14:36.572Z,11.50
2018-12-23T08:17:06.494Z,12.13
2018-12-23T08:19:36.543Z,8.53
2018-12-23T08:22:06.519Z,16.20
2018-12-23T08:24:36.454Z,16.60
2018-12-23T08:27:06.357Z,12.50
2018-12-23T08:29:36.410Z,16.30
2018-12-23T08:32:06.384Z,14.63
2018-12-23T08:34:36.457Z,12.87
2018-12-23T08:37:06.469Z,26.03
2018-12-23T08:39:36.308Z,11.93
2018-12-23T08:42:06.210Z,9.00
2018-12-23T08:44:36.194Z,8.80
2018-12-23T08:47:06.070Z,6.27
2018-12-23T08:49:35.956Z,10.30
2018-12-23T08:52:05.906Z,10.67
2018-12-23T08:54:36.059Z,10.40
2018-12-23T08:57:06.053Z,12.00
2018-12-23T08:59:35.936Z,15.13
2018-12-23T09:02:05.874Z,11.43
2018-12-23T09:04:35.918Z,10.80
2018-12-23T09:07:05.809Z,9.20
2018-12-23T09:09:35.691Z,9.00
2018-12-23T09:12:05.529Z,11.80
2018-12-23T09:14:35.372Z,6.53
2018-12-23T09:17:05.292Z,10.03
2018-12-23T09:19:38.384Z,8.20
2018-12-23T09:22:08.499Z,10.83
2018-12-23T09:24:38.376Z,9.17
2018-12-23T09:27:08.275Z,7.03
2018-12-23T09:29:38.164Z,10.10
2018-12-23T09:32:08.128Z,11.23
2018-12-23T09:34:38.081Z,7.20
2018-12-23T09:37:07.957Z,7.60
2018-12-23T09:39:37.921Z,9.03
2018-12-23T09:42:07.991Z,8.67
2018-12-23T09:44:37.893Z,10.50
2018-12-23T09:47:07.824Z,14.93
2018-12-23T09:49:37.887Z,10.73
2018-12-23T09:52:07.741Z,10.10
2018-12-23T09:54:37.631Z,8.77
2018-12-23T09:57:07.552Z,16.40
2018-12-23T09:59:37.532Z,8.73
2018-12-23T10:02:07.516Z,6.37
2018-12-23T10:04:37.503Z,5.77
2018-12-23T10:07:07.448Z,6.77
2018-12-23T10:09:37.330Z,4.63
2018-12-23T10:12:07.290Z,7.87
2018-12-23T10:14:37.256Z,6.20
2018-12-23T10:17:07.152Z,7.70
2018-12-23T10:19:37.188Z,6.97
2018-12-23T10:22:07.040Z,7.27
2018-12-23T10:24:36.846Z,17.93
2018-12-23T10:27:06.794Z,13.37
2018-12-23T10:29:36.636Z,9.27
2018-12-23T10:32:06.479Z,10.67
2018-12-23T10:34:36.552Z,8.13
2018-12-23T10:37:06.528Z,8.00
2018-12-23T10:39:36.449Z,7.30
2018-12-23T10:42:06.454Z,8.03
2018-12-23T10:44:36.551Z,6.40
2018-12-23T10:47:06.598Z,8.03
2018-12-23T10:49:36.514Z,10.57
2018-12-23T10:52:06.451Z,3.93
2018-12-23T10:54:36.479Z,6.63
2018-12-23T10:57:06.379Z,9.23
2018-12-23T10:59:36.225Z,19.10
2018-12-23T11:02:13.481Z,7.40
2018-12-23T11:04:37.752Z,7.87
2018-12-23T11:07:07.672Z,6.53
2018-12-23T11:09:37.508Z,8.20
2018-12-23T11:12:07.323Z,7.83
2018-12-23T11:14:37.284Z,13.73
2018-12-23T11:17:07.171Z,8.03
2018-12-23T11:19:37.014Z,19.33
2018-12-23T11:22:07.040Z,7.83
2018-12-23T11:24:37.165Z,12.00
2018-12-23T11:27:06.275Z,13.93
2018-12-23T11:29:36.154Z,13.70
2018-12-23T11:32:06.036Z,16.40
2018-12-23T11:34:36.081Z,6.40
2018-12-23T11:37:06.139Z,13.37
2018-12-23T11:39:36.022Z,17.77
2018-12-23T11:42:05.915Z,8.07
2018-12-23T11:44:35.971Z,7.10
2018-12-23T11:47:05.909Z,17.70
2018-12-23T11:49:35.807Z,16.60
2018-12-23T11:52:05.720Z,8.50
2018-12-23T11:54:35.626Z,8.60
2018-12-23T11:57:05.553Z,9.70
2018-12-23T11:59:35.434Z,13.30
2018-12-23T12:02:05.467Z,16.93
2018-12-23T12:04:35.817Z,10.27
2018-12-23T12:07:05.934Z,9.67
2018-12-23T12:09:35.960Z,12.87
2018-12-23T12:12:05.864Z,8.07
2018-12-23T12:14:35.783Z,12.07
2018-12-23T12:17:05.679Z,18.97
2018-12-23T12:19:35.596Z,10.07
2018-12-23T12:22:05.489Z,8.13
2018-12-23T12:24:35.441Z,9.63
2018-12-23T12:27:05.437Z,12.60
2018-12-23T12:29:35.365Z,13.40
2018-12-23T12:32:05.188Z,9.27
2018-12-23T12:34:35.094Z,8.70
2018-12-23T12:37:04.968Z,9.67
2018-12-23T12:39:34.967Z,15.93
2018-12-23T12:42:04.957Z,12.37
2018-12-23T12:44:35.070Z,11.00
2018-12-23T12:47:04.959Z,11.63
2018-12-23T12:49:34.875Z,13.90
2018-12-23T12:52:05.025Z,9.23
2018-12-23T12:54:34.978Z,11.90
2018-12-23T12:57:04.895Z,17.10
2018-12-23T12:59:34.811Z,20.67
2018-12-23T13:02:04.669Z,19.30
2018-12-23T13:04:34.541Z,7.80
2018-12-23T13:07:04.507Z,12.97
2018-12-23T13:09:34.396Z,31.13
2018-12-23T13:12:04.254Z,17.00
2018-12-23T13:14:34.120Z,13.53
2018-12-23T13:17:04.145Z,7.70
2018-12-23T13:19:34.073Z,15.53
2018-12-23T13:22:04.032Z,10.17
2018-12-23T13:24:33.869Z,12.40
2018-12-23T13:27:04.784Z,8.67
2018-12-23T13:29:34.775Z,8.23
2018-12-23T13:32:04.704Z,12.40
2018-12-23T13:34:34.587Z,6.40
2018-12-23T13:37:04.515Z,11.70
2018-12-23T13:39:35.972Z,12.87
2018-12-23T13:42:45.197Z,13.80
2018-12-23T13:45:55.227Z,18.07
2018-12-23T13:49:13.901Z,19.60
2018-12-23T13:52:16.569Z,14.60
2018-12-23T13:55:16.222Z,14.73
2018-12-23T13:58:20.602Z,14.03
2018-12-23T14:01:13.113Z,16.87
2018-12-23T14:04:39.104Z,18.37
2018-12-23T14:07:36.253Z,21.37
2018-12-23T14:10:47.363Z,28.20
2018-12-23T14:13:17.232Z,17.70
2018-12-23T14:15:47.272Z,19.87
2018-12-23T14:18:17.205Z,24.13
2018-12-23T14:20:47.018Z,21.00
2018-12-23T14:23:17.033Z,19.00
2018-12-23T14:25:47.786Z,18.57
2018-12-23T14:28:17.680Z,20.77
2018-12-23T14:30:47.526Z,28.10
2018-12-23T14:33:17.446Z,23.53
2018-12-23T14:35:47.321Z,22.63
2018-12-23T14:38:17.163Z,13.90
2018-12-23T14:40:47.029Z,13.93
2018-12-23T14:43:16.913Z,22.90
2018-12-23T14:45:46.736Z,15.57
2018-12-23T14:48:16.653Z,22.70
2018-12-23T14:50:46.581Z,26.10
2018-12-23T14:53:16.502Z,22.70
2018-12-23T14:55:46.504Z,21.93
2018-12-23T14:58:16.500Z,18.23
2018-12-23T15:00:46.380Z,18.63
2018-12-23T15:03:16.355Z,38.17
2018-12-23T15:05:46.302Z,32.90
2018-12-23T15:08:16.269Z,26.47
2018-12-23T15:10:46.760Z,47.70
2018-12-23T15:13:17.970Z,24.30
2018-12-23T15:15:48.108Z,19.50
2018-12-23T15:18:17.948Z,23.80
2018-12-23T15:20:48.049Z,15.43
2018-12-23T15:23:18.131Z,25.37
2018-12-23T15:25:48.040Z,18.53
2018-12-23T15:28:18.060Z,28.43
2018-12-23T15:30:48.018Z,18.00
2018-12-23T15:33:17.992Z,17.70
2018-12-23T15:35:47.996Z,14.20
2018-12-23T15:38:18.017Z,11.70
2018-12-23T15:40:47.945Z,19.27
2018-12-23T15:43:17.960Z,21.83
2018-12-23T15:45:47.834Z,20.13
2018-12-23T15:48:17.683Z,20.90
2018-12-23T15:50:47.612Z,21.50
2018-12-23T15:53:17.517Z,38.73
2018-12-23T15:55:47.566Z,42.00
2018-12-23T15:58:17.565Z,24.33
2018-12-23T16:00:47.452Z,25.90
2018-12-23T16:03:17.323Z,17.93
2018-12-23T16:05:47.318Z,27.37
2018-12-23T16:08:17.191Z,14.53
2018-12-23T16:10:47.165Z,66.47
2018-12-23T16:13:17.111Z,18.73
2018-12-23T16:15:47.080Z,18.20
2018-12-23T16:18:17.080Z,22.20
2018-12-23T16:20:46.901Z,12.20
2018-12-23T16:23:16.870Z,12.40
2018-12-23T16:25:46.784Z,14.60
2018-12-23T16:28:16.714Z,14.73
2018-12-23T16:30:46.686Z,11.40
2018-12-23T16:33:16.595Z,11.33
2018-12-23T16:35:46.535Z,8.03
2018-12-23T16:38:16.492Z,11.60
2018-12-23T16:40:46.549Z,14.40
2018-12-23T16:43:16.493Z,16.93
2018-12-23T16:45:46.457Z,6.37
2018-12-23T16:48:16.486Z,12.10
2018-12-23T16:50:46.415Z,17.60
2018-12-23T16:53:16.214Z,9.73
2018-12-23T16:55:46.242Z,17.33
2018-12-23T16:58:16.330Z,10.80
2018-12-23T17:00:46.299Z,12.63
2018-12-23T17:03:16.184Z,11.03
2018-12-23T17:05:46.211Z,9.63
2018-12-23T17:08:16.057Z,14.50
2018-12-23T17:10:45.914Z,9.10
2018-12-23T17:13:16.013Z,12.07
2018-12-23T17:15:45.959Z,16.03
2018-12-23T17:18:15.946Z,16.97
2018-12-23T17:20:45.979Z,9.17
2018-12-23T17:23:15.895Z,12.50
2018-12-23T17:25:45.794Z,17.60
2018-12-23T17:28:15.810Z,31.57
2018-12-23T17:30:45.728Z,14.53
2018-12-23T17:33:15.736Z,23.00
2018-12-23T17:35:45.581Z,28.57
2018-12-23T17:38:15.558Z,27.97
2018-12-23T17:40:45.485Z,16.83
2018-12-23T17:43:15.352Z,20.60
2018-12-23T17:45:45.284Z,26.00
2018-12-23T17:48:15.291Z,39.93
2018-12-23T17:50:45.285Z,38.73
2018-12-23T17:53:15.369Z,35.03
2018-12-23T17:55:45.261Z,40.20
2018-12-23T17:58:15.202Z,27.13
2018-12-23T18:00:45.229Z,22.97
2018-12-23T18:03:15.238Z,24.40
2018-12-23T18:05:45.175Z,20.30
2018-12-23T18:08:15.273Z,17.40
2018-12-23T18:10:45.288Z,18.97
2018-12-23T18:13:15.229Z,18.93
2018-12-23T18:15:45.129Z,28.67
2018-12-23T18:18:15.076Z,18.40
2018-12-23T18:20:44.988Z,11.03
2018-12-23T18:23:14.895Z,10.07
2018-12-23T18:25:44.715Z,7.60
2018-12-23T18:28:14.596Z,6.27
2018-12-23T18:30:44.615Z,12.47
2018-12-23T18:33:14.531Z,10.17
2018-12-23T18:35:44.402Z,8.67
2018-12-23T18:38:14.365Z,10.13
2018-12-23T18:40:44.235Z,9.23
2018-12-23T18:43:14.090Z,10.43
2018-12-23T18:45:44.115Z,10.07
2018-12-23T18:48:14.039Z,60.33
2018-12-23T18:50:44.147Z,21.07
2018-12-23T18:53:13.972Z,10.07
2018-12-23T18:55:44.016Z,9.73
2018-12-23T18:58:13.943Z,8.03
2018-12-23T19:00:46.518Z,27.67
2018-12-23T19:03:16.504Z,14.63
2018-12-23T19:05:46.568Z,10.00
2018-12-23T19:08:21.105Z,10.00
2018-12-23T19:11:23.186Z,16.20
2018-12-23T19:14:43.281Z,18.90
2018-12-23T19:17:53.372Z,22.60
2018-12-23T19:21:14.169Z,23.17
2018-12-23T19:24:17.686Z,18.93
2018-12-23T19:27:40.306Z,15.13
2018-12-23T19:30:52.221Z,19.43
2018-12-23T19:34:23.900Z,13.90
2018-12-23T19:37:20.916Z,11.80
2018-12-23T19:40:26.426Z,13.30
2018-12-23T19:43:20.765Z,8.70
2018-12-23T19:46:43.714Z,15.73
2018-12-23T19:49:51.809Z,12.83
2018-12-23T19:53:06.309Z,13.43
2018-12-23T19:56:01.008Z,15.87
2018-12-23T19:59:10.120Z,10.17
2018-12-23T20:02:39.333Z,7.13
2018-12-23T20:05:44.690Z,10.43
2018-12-23T20:08:50.533Z,7.33
2018-12-23T20:12:13.099Z,9.27
2018-12-23T20:15:44.905Z,10.23
2018-12-23T20:19:01.120Z,9.00
2018-12-23T20:22:01.113Z,12.23
2018-12-23T20:25:04.230Z,14.03
2018-12-23T20:28:16.652Z,14.83
2018-12-23T20:31:31.531Z,19.87
2018-12-23T20:35:00.642Z,7.67
2018-12-23T20:37:55.678Z,9.70
2018-12-23T20:41:07.500Z,13.90
2018-12-23T20:44:11.090Z,9.27
2018-12-23T20:47:20.993Z,13.27
2018-12-23T20:50:33.659Z,14.20
2018-12-23T20:53:30.868Z,10.60
2018-12-23T20:56:38.915Z,12.40
2018-12-23T20:59:51.040Z,13.50
2018-12-23T21:03:00.519Z,14.37
2018-12-23T21:06:15.695Z,9.93
2018-12-23T21:09:38.148Z,22.13
2018-12-23T21:12:54.366Z,10.10
2018-12-23T21:16:13.871Z,22.03
2018-12-23T21:19:10.439Z,13.07
2018-12-23T21:22:10.496Z,10.30
2018-12-23T21:25:20.309Z,12.63
2018-12-23T21:28:18.996Z,5.87
2018-12-23T21:31:02.140Z,8.90
2018-12-23T21:34:37.266Z,8.90
2018-12-23T21:37:47.467Z,9.00
2018-12-23T21:40:54.715Z,12.03
2018-12-23T21:44:05.332Z,11.60
2018-12-23T21:47:10.038Z,22.40
2018-12-23T21:50:20.825Z,7.00
2018-12-23T21:53:24.773Z,6.50
2018-12-23T21:56:18.825Z,8.97
2018-12-23T21:59:11.645Z,8.43
2018-12-23T22:02:12.834Z,6.90
2018-12-23T22:05:35.755Z,6.37
2018-12-23T22:08:30.647Z,11.03
2018-12-23T22:11:20.993Z,7.23
2018-12-23T22:13:50.871Z,11.93
2018-12-23T22:16:20.745Z,7.70
2018-12-23T22:18:50.826Z,8.30
2018-12-23T22:21:20.883Z,7.00
2018-12-23T22:23:50.778Z,8.37
2018-12-23T22:26:20.671Z,6.40
2018-12-23T22:28:50.506Z,7.90
2018-12-23T22:31:20.649Z,5.37
2018-12-23T22:33:50.572Z,20.00
2018-12-23T22:36:20.418Z,9.90
2018-12-23T22:38:50.314Z,11.03
2018-12-23T22:41:23.803Z,8.57
2018-12-23T22:43:53.673Z,10.53
2018-12-23T22:46:23.573Z,7.67
2018-12-23T22:48:53.552Z,9.23
2018-12-23T22:51:23.472Z,11.03
2018-12-23T22:53:53.374Z,8.87
2018-12-23T22:56:23.232Z,8.97
2018-12-23T22:58:53.223Z,12.43
2018-12-23T23:01:23.089Z,9.60
2018-12-23T23:03:53.022Z,15.97
2018-12-23T23:06:22.977Z,34.80
2018-12-23T23:08:52.856Z,26.90
2018-12-23T23:11:22.997Z,22.63
2018-12-23T23:13:52.963Z,31.53
2018-12-23T23:16:22.811Z,23.90
2018-12-23T23:18:52.868Z,18.17
2018-12-23T23:21:22.860Z,34.23
2018-12-23T23:23:52.757Z,39.57
2018-12-23T23:26:22.782Z,31.80
2018-12-23T23:28:52.739Z,26.60
2018-12-23T23:31:22.615Z,36.10
2018-12-23T23:33:52.579Z,33.50
2018-12-23T23:36:22.490Z,48.67
2018-12-23T23:38:52.505Z,68.73
2018-12-23T23:41:22.478Z,54.53
2018-12-23T23:43:52.340Z,31.53
2018-12-23T23:46:22.145Z,47.17
2018-12-23T23:48:52.142Z,57.23
2018-12-23T23:51:22.023Z,68.43
2018-12-23T23:53:51.880Z,59.40
2018-12-23T23:56:21.828Z,46.63
2018-12-23T23:58:51.904Z,40.27
